Time;durP1;ratioP1;P1;durP2;ratioP2;P2;SDS_P1;SDS_P2;PMS_P1;PMS_P2;Temp;Humidity;BMP_temperature;BMP_pressure;BME280_temperature;BME280_humidity;BME280_pressure;Samples;Min_cycle;Max_cycle;Signal;HPM_P1;HPM_P2
2023/03/06 00:15:27;;;;;;;9.67;5.40;;;5.50;71.90;;;;;;20984787;28;20579;-74
2023/03/06 00:25:29;;;;;;;10.13;5.50;;;6.10;72.50;;;;;;20983461;28;20213;-76
2023/03/06 00:35:31;;;;;;;10.97;6.30;;;5.60;72.10;;;;;;20982907;28;20346;-72
2023/03/06 00:45:33;;;;;;;9.20;5.90;;;5.60;72.20;;;;;;20981073;28;20215;-73
2023/03/06 00:55:34;;;;;;;8.53;5.50;;;5.60;72.50;;;;;;20981020;28;20203;-77
2023/03/06 01:05:37;;;;;;;8.83;5.20;;;5.60;72.50;;;;;;20979765;28;20203;-74
2023/03/06 01:15:38;;;;;;;16.90;5.30;;;5.50;72.60;;;;;;20979650;28;20213;-74
2023/03/06 01:25:40;;;;;;;9.53;5.73;;;5.50;72.50;;;;;;20930050;28;20213;-73
2023/03/06 01:45:12;;;;;;;8.17;5.30;;;5.40;72.30;;;;;;21068323;27;20682;-77
2023/03/06 01:55:20;;;;;;;9.70;5.03;;;5.40;72.30;;;;;;21067369;28;20208;-73
2023/03/06 02:05:22;;;;;;;10.03;5.60;;;5.40;72.20;;;;;;21066653;28;20207;-72
2023/03/06 02:15:26;;;;;;;8.30;5.13;;;5.40;72.30;;;;;;21073813;28;20235;-75
2023/03/06 02:25:49;;;;;;;11.80;6.07;;;5.30;72.40;;;;;;21085299;28;20618;-74
2023/03/06 02:35:58;;;;;;;11.03;5.77;;;5.30;72.40;;;;;;21064060;28;20241;-76
2023/03/06 02:46:00;;;;;;;9.70;5.77;;;5.30;72.60;;;;;;21064354;28;20674;-75
2023/03/06 02:56:01;;;;;;;10.63;6.43;;;5.20;72.60;;;;;;21009341;28;20227;-73
2023/03/06 03:06:04;;;;;;;17.43;6.77;;;5.20;73.00;;;;;;20976340;28;20215;-77
2023/03/06 03:16:10;;;;;;;13.13;7.80;;;5.10;73.00;;;;;;20922867;28;20232;-78
2023/03/06 03:26:14;;;;;;;13.53;7.40;;;5.20;73.50;;;;;;20921511;28;20259;-73
2023/03/06 03:36:16;;;;;;;14.07;7.60;;;5.20;73.50;;;;;;20920765;28;20664;-75
2023/03/06 03:46:17;;;;;;;16.70;8.33;;;5.20;73.60;;;;;;20920311;28;20571;-74
2023/03/06 03:56:19;;;;;;;17.80;8.83;;;5.30;74.00;;;;;;20919214;28;20239;-75
2023/03/06 04:06:21;;;;;;;14.70;8.47;;;5.20;74.20;;;;;;20917551;28;20610;-74
2023/03/06 04:16:22;;;;;;;19.43;9.57;;;5.20;74.50;;;;;;20918019;28;20239;-74
2023/03/06 04:26:24;;;;;;;16.80;10.37;;;5.10;74.80;;;;;;20916577;28;20212;-74
2023/03/06 04:36:32;;;;;;;21.13;10.10;;;5.10;75.40;;;;;;20915958;28;20700;-73
2023/03/06 04:55:28;;;;;;;22.63;11.03;;;5.00;76.00;;;;;;21237308;27;20560;-72
2023/03/06 05:05:29;;;;;;;20.60;11.83;;;5.00;76.30;;;;;;21236222;28;20266;-73
2023/03/06 05:15:31;;;;;;;21.47;11.27;;;5.00;76.40;;;;;;21235730;28;20258;-74
2023/03/06 05:25:33;;;;;;;21.13;11.40;;;5.00;76.80;;;;;;21234500;28;20206;-72
2023/03/06 05:35:35;;;;;;;19.40;10.80;;;5.00;77.10;;;;;;21233450;28;20211;-72
2023/03/06 05:45:37;;;;;;;22.40;11.63;;;4.90;77.00;;;;;;21233041;28;20600;-72
2023/03/06 05:55:39;;;;;;;22.97;11.83;;;4.90;77.40;;;;;;21232557;28;20221;-73
2023/03/06 06:05:41;;;;;;;20.97;11.97;;;;;;;;;;21181552;28;20544;-75
2023/03/06 06:15:43;;;;;;;23.30;12.70;;;4.90;78.10;;;;;;21187317;28;20234;-76
2023/03/06 06:25:45;;;;;;;20.63;11.67;;;4.90;78.20;;;;;;21179262;28;20713;-73
2023/03/06 06:35:46;;;;;;;23.33;11.53;;;4.90;78.70;;;;;;21171877;28;20237;-72
2023/03/06 06:45:48;;;;;;;23.73;11.47;;;4.90;79.30;;;;;;21171211;28;20229;-74
2023/03/06 06:55:51;;;;;;;23.80;12.77;;;4.90;79.50;;;;;;21152413;28;20210;-73
2023/03/06 07:05:56;;;;;;;21.73;12.17;;;5.00;79.50;;;;;;21169117;28;20237;-74
2023/03/06 07:15:58;;;;;;;20.33;11.73;;;5.00;79.80;;;;;;21167849;28;20206;-73
2023/03/06 07:26:00;;;;;;;21.70;12.33;;;;;;;;;;21167281;28;20228;-73
2023/03/06 07:36:02;;;;;;;20.97;12.00;;;4.90;81.30;;;;;;21166423;28;20215;-74
2023/03/06 07:46:04;;;;;;;24.90;12.70;;;4.90;82.30;;;;;;21165497;28;20236;-76
2023/03/06 07:56:07;;;;;;;21.80;12.40;;;;;;;;;;21165292;28;20206;-74
2023/03/06 08:12:54;;;;;;;18.90;11.37;;;5.10;84.70;;;;;;21236671;27;20585;-75
2023/03/06 08:22:56;;;;;;;17.63;11.17;;;5.10;85.30;;;;;;21235523;28;20611;-72
2023/03/06 08:32:58;;;;;;;23.87;11.90;;;;;;;;;;21234754;28;20630;-76
2023/03/06 08:50:46;;;;;;;15.73;10.47;;;5.60;85.50;;;;;;20983623;28;20552;-73
2023/03/06 09:00:47;;;;;;;18.13;10.87;;;5.80;85.40;;;;;;20982719;28;20640;-76
2023/03/06 09:10:49;;;;;;;18.93;11.60;;;6.00;85.60;;;;;;20982089;28;20650;-72
2023/03/06 09:20:51;;;;;;;15.77;9.83;;;6.00;85.50;;;;;;20981267;28;20223;-73
2023/03/06 09:30:53;;;;;;;15.80;9.80;;;6.10;85.40;;;;;;20980346;28;20261;-73
2023/03/06 09:40:58;;;;;;;18.50;9.90;;;6.50;85.10;;;;;;20979514;28;20219;-75
2023/03/06 09:59:53;;;;;;;14.17;9.23;;;6.60;82.90;;;;;;21067634;28;20557;-73
2023/03/06 10:10:03;;;;;;;16.07;9.27;;;6.60;81.20;;;;;;21066154;28;20657;-74
2023/03/06 10:20:25;;;;;;;14.47;9.43;;;6.40;80.60;;;;;;21067504;28;20223;-73
2023/03/06 10:30:35;;;;;;;13.27;8.50;;;6.30;80.10;;;;;;21066120;28;20237;-73
2023/03/06 10:40:47;;;;;;;12.57;8.93;;;6.00;80.50;;;;;;21064630;28;20348;-75
2023/03/06 10:50:50;;;;;;;16.00;10.30;;;5.80;81.10;;;;;;21063355;28;20239;-75
2023/03/06 11:01:07;;;;;;;14.37;9.60;;;5.70;83.10;;;;;;21062819;28;20270;-75
2023/03/06 11:11:12;;;;;;;17.87;11.10;;;6.40;83.50;;;;;;21006575;28;20301;-73
2023/03/06 11:25:33;;;;;;;15.30;9.97;;;6.70;81.10;;;;;;20737259;28;20657;-72
2023/03/06 11:35:47;;;;;;;15.10;9.27;;;6.90;78.30;;;;;;20736467;28;20217;-73
2023/03/06 11:54:03;;;;;;;14.70;8.87;;;;;;;;;;21151662;27;21132;-73
2023/03/06 12:04:28;;;;;;;14.67;8.70;;;7.10;72.70;;;;;;21150374;28;20620;-76
2023/03/06 12:15:04;;;;;;;14.13;8.70;;;7.00;71.70;;;;;;21148543;28;20247;-77
2023/03/06 12:25:31;;;;;;;15.47;9.13;;;6.80;70.90;;;;;;21149079;28;20267;-72
2023/03/06 12:35:48;;;;;;;12.80;7.67;;;7.30;70.00;;;;;;21148540;28;20252;-73
2023/03/06 12:46:03;;;;;;;11.43;8.00;;;7.40;68.10;;;;;;21147457;28;20242;-76
2023/03/06 12:56:05;;;;;;;14.00;9.00;;;7.30;68.30;;;;;;21143482;28;20220;-76
2023/03/06 13:06:47;;;;;;;12.23;8.63;;;7.10;69.00;;;;;;21089646;28;20235;-75
2023/03/06 13:16:51;;;;;;;13.53;9.07;;;6.80;70.90;;;;;;21089208;28;20664;-78
2023/03/06 13:27:02;;;;;;;15.53;10.10;;;6.80;74.80;;;;;;21087233;28;20256;-75
2023/03/06 13:37:16;;;;;;;14.47;9.37;;;7.10;77.00;;;;;;21086777;28;20338;-75
2023/03/06 13:47:53;;;;;;;14.20;9.53;;;7.40;76.50;;;;;;21085757;28;20246;-78
2023/03/06 13:58:31;;;;;;;19.87;9.27;;;7.50;75.60;;;;;;21086344;28;20245;-72
2023/03/06 14:08:33;;;;;;;11.77;8.53;;;7.70;74.20;;;;;;21083869;28;20237;-75
2023/03/06 14:18:45;;;;;;;17.23;8.77;;;7.60;71.80;;;;;;21084000;28;20234;-74
2023/03/06 14:28:55;;;;;;;12.40;8.30;;;7.70;70.80;;;;;;21083822;28;20298;-74
2023/03/06 14:39:01;;;;;;;15.10;8.90;;;7.60;69.50;;;;;;21084746;28;20616;-77
2023/03/06 14:49:06;;;;;;;12.13;7.93;;;8.80;66.20;;;;;;21099072;28;20253;-78
2023/03/06 14:59:12;;;;;;;11.27;8.10;;;8.40;64.20;;;;;;21088888;28;20205;-73
2023/03/06 15:09:20;;;;;;;12.40;8.57;;;8.50;63.60;;;;;;21080123;28;20244;-78
2023/03/06 15:19:22;;;;;;;13.93;8.80;;;8.90;64.20;;;;;;21080053;28;20684;-73
2023/03/06 15:29:26;;;;;;;14.33;9.90;;;8.50;65.00;;;;;;21079912;28;20240;-78
2023/03/06 15:39:33;;;;;;;13.47;9.40;;;8.40;66.80;;;;;;21078917;28;20280;-76
2023/03/06 15:49:37;;;;;;;13.07;9.23;;;7.90;67.70;;;;;;21078439;28;20253;-78
2023/03/06 15:59:42;;;;;;;12.67;9.03;;;7.50;68.40;;;;;;21078077;28;20653;-76
2023/03/06 16:09:44;;;;;;;12.10;8.67;;;7.50;68.80;;;;;;21077718;28;20244;-78
2023/03/06 16:19:45;;;;;;;13.53;9.13;;;7.20;68.80;;;;;;21076398;28;20742;-76
2023/03/06 16:29:47;;;;;;;10.93;8.13;;;7.00;68.80;;;;;;21076046;28;20703;-76
2023/03/06 16:39:49;;;;;;;15.10;8.50;;;7.00;68.60;;;;;;21052757;28;20727;-78
2023/03/06 16:49:56;;;;;;;10.97;7.57;;;6.80;68.60;;;;;;20921465;28;20649;-77
2023/03/06 16:59:57;;;;;;;13.20;8.07;;;6.70;69.10;;;;;;20923848;28;20274;-72
2023/03/06 17:09:59;;;;;;;12.63;8.40;;;6.50;70.40;;;;;;20923277;28;20238;-71
2023/03/06 17:20:02;;;;;;;12.63;8.60;;;6.40;72.10;;;;;;20922016;28;20266;-72
2023/03/06 17:30:04;;;;;;;13.97;9.23;;;6.20;73.40;;;;;;20921689;28;20639;-69
2023/03/06 17:40:08;;;;;;;15.60;9.20;;;6.10;74.60;;;;;;20920719;28;20295;-70
2023/03/06 17:50:10;;;;;;;16.20;10.00;;;6.10;75.40;;;;;;20919484;28;20252;-70
2023/03/06 18:00:12;;;;;;;15.60;10.03;;;5.90;76.60;;;;;;20919222;28;20619;-70
2023/03/06 18:10:14;;;;;;;16.53;9.73;;;5.80;77.60;;;;;;20917936;28;20236;-69
2023/03/06 18:20:30;;;;;;;14.53;9.67;;;5.90;78.40;;;;;;20983879;28;20915;-70
2023/03/06 18:30:37;;;;;;;16.33;9.73;;;5.80;78.80;;;;;;20970036;28;20210;-68
2023/03/06 18:40:40;;;;;;;14.53;9.47;;;5.80;79.30;;;;;;20955792;28;20217;-70
2023/03/06 18:58:53;;;;;;;15.57;10.07;;;5.80;79.60;;;;;;21067774;28;20570;-70
2023/03/06 19:08:57;;;;;;;17.40;10.47;;;5.70;79.60;;;;;;21067653;28;20657;-69
2023/03/06 19:18:59;;;;;;;15.00;10.30;;;5.70;79.50;;;;;;21064209;28;20584;-70
2023/03/06 19:29:01;;;;;;;16.53;10.57;;;5.70;80.40;;;;;;21065122;28;20259;-73
2023/03/06 19:39:05;;;;;;;17.80;11.07;;;5.70;80.10;;;;;;21035434;28;20219;-71
2023/03/06 19:49:10;;;;;;;17.00;11.30;;;;;;;;;;21017737;28;20677;-72
